Time;durP1;ratioP1;P1;durP2;ratioP2;P2;SDS_P1;SDS_P2;PMS_P1;PMS_P2;Temp;Humidity;BMP_temperature;BMP_pressure;BME280_temperature;BME280_humidity;BME280_pressure;Samples;Min_cycle;Max_cycle;Signal;HPM_P1;HPM_P2
2021/04/25 00:01:38;;;;;;;6.72;1.90;;;4.40;99.90;;;;;;5027218;28;20048;-78
2021/04/25 00:04:06;;;;;;;7.50;2.05;;;4.30;99.90;;;;;;5027273;28;20486;-78
2021/04/25 00:06:32;;;;;;;8.10;2.83;;;4.40;99.90;;;;;;5026904;28;20022;-78
2021/04/25 00:08:57;;;;;;;11.18;3.55;;;4.40;99.90;;;;;;5045000;28;20549;-78
2021/04/25 00:11:23;;;;;;;5.47;2.28;;;4.40;99.90;;;;;;5048773;28;20037;-78
2021/04/25 00:13:49;;;;;;;6.65;2.05;;;4.50;99.90;;;;;;5048182;28;20079;-78
2021/04/25 00:16:15;;;;;;;7.65;2.70;;;4.50;99.90;;;;;;5048817;28;20032;-77
2021/04/25 00:18:41;;;;;;;4.20;1.33;;;4.60;99.90;;;;;;5048848;28;20032;-79
2021/04/25 00:21:08;;;;;;;7.35;2.28;;;4.60;99.90;;;;;;5048802;28;20051;-78
2021/04/25 00:23:33;;;;;;;9.95;3.15;;;4.60;99.90;;;;;;5048593;28;20040;-78
2021/04/25 00:25:59;;;;;;;9.07;2.40;;;4.60;99.90;;;;;;5031895;28;20036;-78
2021/04/25 00:28:25;;;;;;;12.23;2.80;;;4.70;99.90;;;;;;5032116;28;20029;-78
2021/04/25 00:30:51;;;;;;;5.65;2.05;;;4.70;99.90;;;;;;5048620;28;20119;-78
2021/04/25 00:33:16;;;;;;;7.35;2.72;;;4.70;99.90;;;;;;5064677;28;20029;-78
2021/04/25 00:35:42;;;;;;;7.03;2.10;;;4.70;99.90;;;;;;5046075;28;20014;-78
2021/04/25 00:38:08;;;;;;;7.82;2.85;;;4.80;99.90;;;;;;5028650;28;20037;-78
2021/04/25 00:40:34;;;;;;;8.57;3.17;;;4.80;99.90;;;;;;5046185;28;20040;-78
2021/04/25 00:42:59;;;;;;;8.43;3.38;;;4.80;99.90;;;;;;5046141;28;20033;-78
2021/04/25 00:45:25;;;;;;;5.68;2.25;;;4.70;99.90;;;;;;5012198;28;20076;-78
2021/04/25 00:47:51;;;;;;;7.05;2.05;;;4.80;99.90;;;;;;5028457;28;20033;-78
2021/04/25 00:50:25;;;;;;;5.25;1.73;;;4.80;99.90;;;;;;5046214;28;20022;-78
2021/04/25 00:52:55;;;;;;;6.10;1.90;;;4.80;99.90;;;;;;5028395;28;20030;-78
2021/04/25 00:55:24;;;;;;;6.80;1.98;;;4.90;99.90;;;;;;5045910;28;20033;-78
2021/04/25 00:57:52;;;;;;;4.65;1.73;;;4.90;99.90;;;;;;5046052;28;20033;-78
2021/04/25 01:00:19;;;;;;;6.25;1.80;;;4.90;99.90;;;;;;5028439;28;20043;-78
2021/04/25 01:02:45;;;;;;;8.20;1.98;;;5.00;99.90;;;;;;5011719;28;20048;-79
2021/04/25 01:05:35;;;;;;;6.88;2.45;;;5.10;99.90;;;;;;5027929;28;20037;-79
2021/04/25 01:08:01;;;;;;;4.88;1.80;;;5.20;99.90;;;;;;4952416;28;20073;-78
2021/04/25 01:10:28;;;;;;;5.03;1.33;;;5.30;99.90;;;;;;4968550;28;20042;-78
2021/04/25 01:12:54;;;;;;;8.02;1.95;;;5.30;99.90;;;;;;4968624;28;20042;-78
2021/04/25 01:15:22;;;;;;;6.45;1.60;;;5.30;99.90;;;;;;4968425;28;20045;-78
2021/04/25 01:17:48;;;;;;;4.70;0.98;;;5.40;99.90;;;;;;4968283;28;20031;-78
2021/04/25 01:20:18;;;;;;;5.78;1.98;;;5.40;99.90;;;;;;4968532;28;20050;-80
2021/04/25 01:22:44;;;;;;;6.18;1.83;;;5.40;99.90;;;;;;4968318;28;20045;-77
2021/04/25 01:25:12;;;;;;;6.25;1.60;;;5.30;99.90;;;;;;4984254;28;20074;-78
2021/04/25 01:27:37;;;;;;;4.80;1.90;;;5.30;99.90;;;;;;4968035;28;20110;-78
2021/04/25 01:30:06;;;;;;;5.15;1.60;;;5.30;99.90;;;;;;4984519;28;20027;-78
2021/04/25 01:32:34;;;;;;;7.25;3.22;;;5.30;99.90;;;;;;4984284;28;20519;-78
2021/04/25 01:35:00;;;;;;;7.25;2.45;;;5.20;99.90;;;;;;4967537;28;20034;-78
2021/04/25 01:37:25;;;;;;;8.90;3.28;;;5.20;99.90;;;;;;5003642;28;20045;-78
2021/04/25 01:39:51;;;;;;;7.03;2.13;;;5.20;99.90;;;;;;4987656;28;20034;-78
2021/04/25 01:42:18;;;;;;;9.32;3.28;;;5.20;99.90;;;;;;5000689;28;20043;-78
2021/04/25 01:44:44;;;;;;;7.88;2.58;;;5.10;99.90;;;;;;4992566;28;20554;-78
2021/04/25 01:47:09;;;;;;;7.40;2.00;;;5.10;99.90;;;;;;4988476;28;20034;-78
2021/04/25 01:49:35;;;;;;;7.88;2.35;;;5.10;99.90;;;;;;4988760;28;20109;-78
2021/04/25 01:52:02;;;;;;;7.15;2.15;;;5.10;99.90;;;;;;5006017;28;20038;-78
2021/04/25 01:54:28;;;;;;;5.28;1.55;;;5.10;99.90;;;;;;4988665;28;20057;-77
2021/04/25 01:56:54;;;;;;;6.25;1.48;;;5.10;99.90;;;;;;5005755;28;20030;-79
2021/04/25 01:59:19;;;;;;;9.05;1.83;;;5.10;99.90;;;;;;5006093;28;20034;-78
2021/04/25 02:01:45;;;;;;;7.38;1.88;;;5.10;99.90;;;;;;4988541;28;20577;-78
2021/04/25 02:04:12;;;;;;;7.10;1.52;;;5.00;99.90;;;;;;5005937;28;20032;-78
2021/04/25 02:06:41;;;;;;;4.68;1.55;;;5.00;99.90;;;;;;4988044;28;20045;-78
2021/04/25 02:09:08;;;;;;;9.77;2.13;;;5.00;99.90;;;;;;4985593;28;20105;-78
2021/04/25 02:11:33;;;;;;;4.90;1.55;;;4.90;99.90;;;;;;5005916;28;20034;-78
2021/04/25 02:13:59;;;;;;;5.93;1.27;;;4.90;99.90;;;;;;5005739;28;20141;-78
2021/04/25 02:16:25;;;;;;;8.32;2.53;;;4.90;99.90;;;;;;4988105;28;20105;-78
2021/04/25 02:18:50;;;;;;;5.97;2.30;;;4.90;99.90;;;;;;5004479;28;20041;-78
2021/04/25 02:21:16;;;;;;;5.53;2.17;;;4.90;99.90;;;;;;4988509;28;20034;-78
2021/04/25 02:23:42;;;;;;;6.80;1.83;;;4.90;99.90;;;;;;5005717;28;20038;-78
2021/04/25 02:26:07;;;;;;;5.07;1.70;;;4.90;99.90;;;;;;5004441;28;20035;-79
2021/04/25 02:28:33;;;;;;;6.22;2.45;;;4.90;99.90;;;;;;5005678;28;20109;-78
2021/04/25 02:30:59;;;;;;;3.85;1.10;;;4.90;99.90;;;;;;5004791;28;20067;-78
2021/04/25 02:33:24;;;;;;;8.77;2.17;;;4.90;99.90;;;;;;4994077;28;20029;-78
2021/04/25 02:35:50;;;;;;;7.50;1.25;;;4.90;99.90;;;;;;5045357;28;20033;-78
2021/04/25 02:38:15;;;;;;;7.00;1.38;;;5.00;99.90;;;;;;5047597;28;20039;-78
2021/04/25 02:40:41;;;;;;;5.22;1.40;;;4.90;99.90;;;;;;5048823;28;20125;-78
2021/04/25 02:43:07;;;;;;;7.25;1.20;;;4.90;99.90;;;;;;5038589;28;20045;-78
2021/04/25 02:45:33;;;;;;;6.30;1.40;;;4.90;99.90;;;;;;5027595;28;20034;-78
2021/04/25 02:48:07;;;;;;;7.47;1.38;;;4.80;99.90;;;;;;5011155;28;20049;-79
2021/04/25 02:50:36;;;;;;;5.75;1.35;;;4.80;99.90;;;;;;5028838;28;20030;-79
2021/04/25 02:53:03;;;;;;;9.10;1.92;;;4.80;99.90;;;;;;5028747;28;20053;-78
2021/04/25 02:55:28;;;;;;;8.63;1.55;;;4.70;99.90;;;;;;5027176;28;20045;-78
2021/04/25 02:57:54;;;;;;;6.03;1.25;;;4.70;99.90;;;;;;5028527;28;20030;-77
2021/04/25 03:00:25;;;;;;;5.88;1.23;;;4.70;99.90;;;;;;5027340;28;20034;-78
2021/04/25 03:02:50;;;;;;;7.35;1.58;;;4.70;99.90;;;;;;5027316;28;20056;-78
2021/04/25 03:05:36;;;;;;;4.85;2.15;;;4.70;99.90;;;;;;5028114;28;20026;-79
2021/04/25 03:08:02;;;;;;;4.18;1.30;;;4.60;99.90;;;;;;4932254;29;20047;-77
2021/04/25 03:10:28;;;;;;;5.68;1.15;;;4.50;99.90;;;;;;4916335;29;20044;-78
2021/04/25 03:12:54;;;;;;;6.85;1.00;;;4.50;99.90;;;;;;4916760;29;20042;-78
2021/04/25 03:15:21;;;;;;;5.38;1.10;;;4.40;99.90;;;;;;4948120;29;20027;-78
2021/04/25 03:17:48;;;;;;;4.93;1.00;;;4.40;99.90;;;;;;4948275;29;20040;-77
2021/04/25 03:20:16;;;;;;;6.55;1.35;;;4.30;99.90;;;;;;4916547;29;20064;-79
2021/04/25 03:22:42;;;;;;;3.30;0.90;;;4.30;99.90;;;;;;4932315;29;20051;-78
2021/04/25 03:25:09;;;;;;;4.30;1.00;;;4.20;99.90;;;;;;4932044;29;20044;-78
2021/04/25 03:27:35;;;;;;;6.85;1.08;;;4.20;99.90;;;;;;4916443;29;20107;-78
2021/04/25 03:30:00;;;;;;;5.50;0.85;;;4.20;99.90;;;;;;4932055;29;20024;-78
2021/04/25 03:32:26;;;;;;;6.47;0.85;;;4.20;99.90;;;;;;4916371;29;20107;-77
2021/04/25 03:34:52;;;;;;;4.35;0.90;;;4.10;99.90;;;;;;4946187;29;20039;-78
2021/04/25 03:37:18;;;;;;;5.13;1.13;;;4.10;99.90;;;;;;4950832;29;20031;-78
2021/04/25 03:39:43;;;;;;;7.57;1.13;;;4.00;99.90;;;;;;4967000;29;20101;-78
2021/04/25 03:42:09;;;;;;;8.93;1.05;;;4.10;99.90;;;;;;4949107;29;20082;-78
2021/04/25 03:44:35;;;;;;;4.03;0.80;;;4.10;99.90;;;;;;4951018;28;20045;-78
2021/04/25 03:47:00;;;;;;;5.75;1.00;;;4.10;99.90;;;;;;5008187;28;20041;-78
2021/04/25 03:49:26;;;;;;;2.83;1.00;;;4.20;99.90;;;;;;4990615;28;20234;-78
2021/04/25 03:51:54;;;;;;;4.70;0.90;;;4.30;99.90;;;;;;5006885;28;20030;-79
2021/04/25 03:54:20;;;;;;;3.75;0.60;;;4.40;99.90;;;;;;5006687;28;20038;-78
2021/04/25 03:56:46;;;;;;;5.82;0.70;;;4.40;99.90;;;;;;5007843;28;20062;-78
2021/04/25 03:59:12;;;;;;;4.25;0.70;;;4.50;99.90;;;;;;5007781;28;20030;-78
2021/04/25 04:01:38;;;;;;;5.75;0.70;;;4.50;99.90;;;;;;5006538;28;20026;-78
2021/04/25 04:04:04;;;;;;;5.40;0.75;;;4.50;99.90;;;;;;5006553;28;20030;-78
2021/04/25 04:06:29;;;;;;;3.28;0.50;;;4.50;99.90;;;;;;5007074;28;20072;-77
2021/04/25 04:08:55;;;;;;;3.08;0.50;;;4.50;99.90;;;;;;4990060;28;20069;-77
2021/04/25 04:11:21;;;;;;;4.78;0.70;;;4.60;99.90;;;;;;5006253;28;20031;-78
2021/04/25 04:13:47;;;;;;;3.90;0.52;;;4.60;99.90;;;;;;5007464;28;20030;-78
2021/04/25 04:16:13;;;;;;;6.63;0.82;;;4.60;99.90;;;;;;4991018;28;20050;-78
2021/04/25 04:18:38;;;;;;;3.70;0.75;;;4.60;99.90;;;;;;5006328;28;20030;-78
2021/04/25 04:21:05;;;;;;;3.30;0.73;;;4.70;99.90;;;;;;5007402;28;20034;-78
2021/04/25 04:23:30;;;;;;;3.03;0.50;;;4.70;99.90;;;;;;5007378;28;20046;-79
2021/04/25 04:25:56;;;;;;;4.05;0.57;;;4.70;99.90;;;;;;5007021;28;20064;-78
2021/04/25 04:28:21;;;;;;;3.08;0.63;;;4.70;99.90;;;;;;5007391;28;20030;-78
2021/04/25 04:30:47;;;;;;;2.92;0.70;;;4.70;99.90;;;;;;5005779;28;20057;-78
2021/04/25 04:33:13;;;;;;;4.32;0.63;;;4.70;99.90;;;;;;5008644;28;20390;-78
2021/04/25 04:35:39;;;;;;;3.50;0.80;;;4.70;99.90;;;;;;5046304;28;20028;-78
2021/04/25 04:38:04;;;;;;;5.45;0.73;;;4.70;99.90;;;;;;5028889;28;20036;-78
2021/04/25 04:40:30;;;;;;;3.83;0.60;;;4.80;99.90;;;;;;5045214;28;20040;-78
2021/04/25 04:42:56;;;;;;;2.90;0.93;;;4.80;99.90;;;;;;5022136;28;20048;-78
2021/04/25 04:45:21;;;;;;;4.60;0.60;;;4.80;99.90;;;;;;5039682;28;20038;-78
2021/04/25 04:47:48;;;;;;;3.15;0.60;;;4.80;99.90;;;;;;5022794;28;20054;-78
2021/04/25 04:50:18;;;;;;;4.85;0.50;;;4.90;99.90;;;;;;5023384;28;20089;-78
2021/04/25 04:52:45;;;;;;;3.60;0.70;;;4.90;99.90;;;;;;5024177;28;20049;-78
2021/04/25 04:55:11;;;;;;;3.17;0.82;;;4.90;99.90;;;;;;5007510;28;20026;-78
2021/04/25 04:57:37;;;;;;;1.70;0.40;;;4.90;99.90;;;;;;5007505;28;20037;-78
2021/04/25 05:00:05;;;;;;;2.33;0.50;;;4.90;99.90;;;;;;5021268;28;20026;-78
2021/04/25 05:02:30;;;;;;;6.70;0.50;;;5.00;99.90;;;;;;5021057;28;20038;-78
2021/04/25 05:04:56;;;;;;;5.35;0.50;;;5.00;99.90;;;;;;5023838;28;20048;-81
2021/04/25 05:07:22;;;;;;;2.15;0.50;;;5.00;99.90;;;;;;5009525;28;20607;-79
2021/04/25 05:09:47;;;;;;;3.88;0.50;;;5.00;99.90;;;;;;5011224;28;20040;-79
2021/04/25 05:12:13;;;;;;;2.38;0.60;;;5.10;99.90;;;;;;5011062;28;20064;-79
2021/04/25 05:14:38;;;;;;;1.98;0.40;;;5.10;99.90;;;;;;5027491;28;20466;-79
2021/04/25 05:17:04;;;;;;;4.78;0.43;;;5.20;99.90;;;;;;5010915;28;20033;-79
2021/04/25 05:19:30;;;;;;;4.95;0.85;;;5.20;99.90;;;;;;5010948;28;20025;-78
2021/04/25 05:21:55;;;;;;;4.60;0.60;;;5.10;99.90;;;;;;5010634;28;20077;-79
2021/04/25 05:24:22;;;;;;;4.28;0.52;;;5.20;99.90;;;;;;5045071;28;20033;-79
2021/04/25 05:26:47;;;;;;;3.90;0.45;;;5.20;99.90;;;;;;5010640;28;20041;-79
2021/04/25 05:29:13;;;;;;;4.47;0.60;;;5.30;99.90;;;;;;5010446;28;20025;-78
2021/04/25 05:31:40;;;;;;;2.83;0.47;;;5.30;99.90;;;;;;5027083;28;20033;-79
2021/04/25 05:34:06;;;;;;;4.57;0.50;;;5.30;99.90;;;;;;5010616;28;20051;-79
2021/04/25 05:36:32;;;;;;;4.45;0.40;;;5.30;99.90;;;;;;5023497;28;20101;-79
2021/04/25 05:38:57;;;;;;;3.30;0.30;;;5.30;99.90;;;;;;5007392;28;20033;-79
2021/04/25 05:41:24;;;;;;;3.10;0.40;;;5.40;99.90;;;;;;5024989;28;20026;-79
2021/04/25 05:43:50;;;;;;;3.92;0.50;;;5.40;99.90;;;;;;4991247;28;20042;-79
2021/04/25 05:46:16;;;;;;;3.10;0.30;;;5.40;99.90;;;;;;5023794;28;20033;-79
2021/04/25 05:48:45;;;;;;;3.00;0.50;;;5.50;99.90;;;;;;5007462;28;20585;-79
2021/04/25 05:51:12;;;;;;;4.53;0.50;;;5.40;99.90;;;;;;5023704;28;20022;-79
2021/04/25 05:53:38;;;;;;;4.45;0.40;;;5.40;99.90;;;;;;5007461;28;20045;-79
2021/04/25 05:56:04;;;;;;;2.50;0.35;;;5.50;99.90;;;;;;5023398;28;20032;-79
2021/04/25 05:58:29;;;;;;;1.75;0.40;;;5.50;99.90;;;;;;5007337;28;20037;-79
2021/04/25 06:00:55;;;;;;;2.88;0.65;;;5.60;99.90;;;;;;5007129;28;20153;-79
2021/04/25 06:03:21;;;;;;;4.28;0.30;;;5.60;99.90;;;;;;5007213;28;20582;-79
2021/04/25 06:05:47;;;;;;;1.48;0.30;;;5.70;99.90;;;;;;5032859;28;20037;-79
2021/04/25 06:08:13;;;;;;;4.55;0.60;;;5.70;99.90;;;;;;5024846;28;20075;-79
2021/04/25 06:10:39;;;;;;;1.95;0.30;;;5.70;99.90;;;;;;5009277;28;20029;-79
2021/04/25 06:13:05;;;;;;;2.05;0.25;;;5.70;99.90;;;;;;5028413;28;20034;-80
2021/04/25 06:15:31;;;;;;;1.88;0.40;;;5.80;99.90;;;;;;5011544;28;20032;-79
2021/04/25 06:18:00;;;;;;;3.13;0.50;;;5.80;99.90;;;;;;5048671;28;20101;-79
2021/04/25 06:20:26;;;;;;;4.00;0.40;;;5.90;99.90;;;;;;5046428;28;20030;-80
2021/04/25 06:22:52;;;;;;;1.00;0.20;;;5.90;99.90;;;;;;5030147;28;20052;-80
2021/04/25 06:25:18;;;;;;;5.43;0.77;;;5.90;99.90;;;;;;5030523;28;20080;-79
2021/04/25 06:27:44;;;;;;;3.60;0.38;;;5.80;99.90;;;;;;5030198;28;20045;-79
2021/04/25 06:30:12;;;;;;;1.10;0.20;;;5.80;99.90;;;;;;5030254;28;20041;-79
2021/04/25 06:32:37;;;;;;;3.50;0.30;;;5.80;99.90;;;;;;5013746;28;20293;-79
2021/04/25 06:35:04;;;;;;;4.32;0.38;;;5.80;99.90;;;;;;5029454;28;20408;-80
2021/04/25 06:37:30;;;;;;;1.25;0.30;;;5.90;99.90;;;;;;5029188;28;20030;-79
2021/04/25 06:39:55;;;;;;;5.20;0.40;;;6.00;99.90;;;;;;5013204;28;20103;-79
2021/04/25 06:42:21;;;;;;;4.10;0.40;;;6.00;99.90;;;;;;5029946;28;20394;-79
2021/04/25 06:44:47;;;;;;;2.47;0.30;;;6.10;99.90;;;;;;5029897;28;20584;-79
2021/04/25 06:47:12;;;;;;;4.10;0.30;;;6.20;99.90;;;;;;5029989;28;20044;-79
2021/04/25 06:49:38;;;;;;;1.80;0.22;;;6.20;99.90;;;;;;5048015;28;20052;-80
2021/04/25 06:52:04;;;;;;;2.55;0.30;;;6.20;99.90;;;;;;5047588;28;20029;-80
2021/04/25 06:54:30;;;;;;;1.80;0.30;;;6.20;99.90;;;;;;5029787;28;20052;-79
2021/04/25 06:56:56;;;;;;;2.40;0.65;;;6.30;99.90;;;;;;5013733;28;20033;-79
2021/04/25 06:59:21;;;;;;;2.03;0.30;;;6.40;99.90;;;;;;5013911;28;20033;-80
2021/04/25 07:01:47;;;;;;;3.10;0.35;;;6.40;99.90;;;;;;5013819;28;20042;-79
2021/04/25 07:04:13;;;;;;;6.97;0.47;;;6.40;99.90;;;;;;5029981;28;20041;-80
2021/04/25 07:06:39;;;;;;;2.15;0.30;;;6.40;99.90;;;;;;5029099;28;20021;-79
2021/04/25 07:09:05;;;;;;;5.32;0.30;;;6.50;99.90;;;;;;5030020;28;20068;-79
2021/04/25 07:11:30;;;;;;;3.85;0.30;;;6.60;99.90;;;;;;5030201;28;20026;-80
2021/04/25 07:13:56;;;;;;;3.00;0.50;;;6.70;99.90;;;;;;5030240;28;20120;-80
2021/04/25 07:16:21;;;;;;;3.13;0.30;;;6.80;99.90;;;;;;5014586;28;20041;-79
2021/04/25 07:18:47;;;;;;;2.08;0.30;;;6.70;99.90;;;;;;5029500;28;20064;-80
2021/04/25 07:21:13;;;;;;;2.15;0.30;;;6.80;99.90;;;;;;5029718;28;20049;-80
2021/04/25 07:23:39;;;;;;;4.85;0.30;;;6.90;99.90;;;;;;5029207;28;20080;-80
2021/04/25 07:26:04;;;;;;;8.45;0.40;;;7.00;99.90;;;;;;5029477;28;20091;-80
2021/04/25 07:28:33;;;;;;;3.80;0.70;;;6.60;99.90;;;;;;5029427;28;20044;-80
2021/04/25 07:30:59;;;;;;;3.80;0.47;;;6.50;99.90;;;;;;5012786;28;20460;-80
2021/04/25 07:33:24;;;;;;;1.10;0.20;;;6.60;99.90;;;;;;5047102;28;20017;-79
2021/04/25 07:35:50;;;;;;;1.88;0.20;;;6.80;99.90;;;;;;5012531;28;20433;-80
2021/04/25 07:38:16;;;;;;;3.13;0.20;;;7.00;99.90;;;;;;5012690;28;20021;-80
2021/04/25 07:40:42;;;;;;;4.63;0.30;;;7.20;99.90;;;;;;5047064;28;20025;-80
2021/04/25 07:43:08;;;;;;;4.55;0.30;;;7.10;99.90;;;;;;5012610;28;20049;-80
2021/04/25 07:45:34;;;;;;;2.33;0.40;;;7.10;99.90;;;;;;5046943;28;20465;-80
2021/04/25 07:48:00;;;;;;;4.05;0.50;;;7.10;99.90;;;;;;5012519;28;20037;-79
2021/04/25 07:50:25;;;;;;;3.83;0.30;;;6.90;99.90;;;;;;5029106;28;20101;-79
2021/04/25 07:52:51;;;;;;;2.65;0.20;;;7.20;99.90;;;;;;5012666;28;20099;-79
2021/04/25 07:55:17;;;;;;;5.35;0.40;;;7.10;99.90;;;;;;5012599;28;20084;-80
2021/04/25 07:57:43;;;;;;;2.38;0.60;;;6.90;99.90;;;;;;5012522;28;20086;-80
2021/04/25 08:00:13;;;;;;;2.65;0.40;;;7.10;99.90;;;;;;5012651;28;20033;-80
2021/04/25 08:02:39;;;;;;;4.50;0.50;;;7.00;99.90;;;;;;5028786;28;20046;-79
2021/04/25 08:05:06;;;;;;;2.97;0.30;;;7.00;99.90;;;;;;5028534;28;20033;-79
2021/04/25 08:07:32;;;;;;;2.95;0.30;;;7.00;99.90;;;;;;5011879;28;20049;-80
2021/04/25 08:09:58;;;;;;;2.75;0.30;;;7.10;99.90;;;;;;5028437;28;20140;-79
2021/04/25 08:12:23;;;;;;;1.90;0.10;;;7.10;99.90;;;;;;5028327;28;20077;-80
2021/04/25 08:14:49;;;;;;;5.22;0.40;;;7.20;99.90;;;;;;5046048;28;20045;-80
2021/04/25 08:17:15;;;;;;;6.57;0.30;;;7.20;99.90;;;;;;5028444;28;20040;-79
2021/04/25 08:19:41;;;;;;;2.92;0.30;;;7.10;99.90;;;;;;5028673;28;20366;-79
2021/04/25 08:22:07;;;;;;;1.42;0.20;;;7.10;99.90;;;;;;5046497;28;20052;-79
2021/04/25 08:24:34;;;;;;;2.10;0.32;;;7.40;99.90;;;;;;5028283;28;20037;-79
2021/04/25 08:27:00;;;;;;;6.63;0.30;;;7.80;99.90;;;;;;5028311;28;20036;-79
2021/04/25 08:29:26;;;;;;;3.53;0.20;;;8.00;99.90;;;;;;5028016;28;20101;-79
2021/04/25 08:31:52;;;;;;;2.08;0.25;;;8.10;99.90;;;;;;5028206;28;20030;-79
2021/04/25 08:34:19;;;;;;;4.78;0.30;;;8.10;99.90;;;;;;5027758;28;20033;-80
2021/04/25 08:36:44;;;;;;;3.00;0.28;;;8.30;99.90;;;;;;5011977;28;20460;-79
2021/04/25 08:39:11;;;;;;;2.63;0.22;;;8.20;99.90;;;;;;5028282;28;20085;-79
2021/04/25 08:41:38;;;;;;;1.08;0.20;;;8.40;99.90;;;;;;5028284;28;20033;-79
2021/04/25 08:44:08;;;;;;;4.57;0.30;;;8.40;99.90;;;;;;5028479;28;20041;-80
2021/04/25 08:46:35;;;;;;;2.53;0.20;;;8.20;99.90;;;;;;5028261;28;20029;-81
2021/04/25 08:49:01;;;;;;;3.40;0.30;;;8.20;99.90;;;;;;5011604;28;20038;-79
2021/04/25 08:51:27;;;;;;;2.30;0.20;;;8.20;99.90;;;;;;5028025;28;20112;-80
2021/04/25 08:53:52;;;;;;;3.00;0.20;;;8.10;99.90;;;;;;5045656;28;20382;-80
2021/04/25 08:56:20;;;;;;;3.80;0.20;;;8.50;99.90;;;;;;5028149;28;20037;-79
2021/04/25 08:58:48;;;;;;;3.75;0.30;;;8.40;99.90;;;;;;5027975;28;20033;-80
2021/04/25 09:01:14;;;;;;;3.72;0.30;;;8.00;99.90;;;;;;5027734;28;20029;-79
2021/04/25 09:03:40;;;;;;;3.40;0.30;;;8.30;99.90;;;;;;5028281;28;20370;-80
2021/04/25 09:06:10;;;;;;;3.90;0.85;;;8.30;99.90;;;;;;5011643;28;20037;-80
2021/04/25 09:08:44;;;;;;;3.38;0.30;;;8.50;99.90;;;;;;5010909;28;20053;-79
2021/04/25 09:11:32;;;;;;;5.03;0.20;;;8.30;99.90;;;;;;5027757;28;20397;-80
2021/04/25 09:14:21;;;;;;;3.60;0.30;;;8.60;99.90;;;;;;5011448;28;20112;-79
2021/04/25 09:16:59;;;;;;;2.67;0.20;;;8.80;99.90;;;;;;5027621;28;20057;-80
2021/04/25 09:19:46;;;;;;;3.45;0.30;;;9.20;99.90;;;;;;5045483;28;20038;-79
2021/04/25 09:22:12;;;;;;;5.00;0.32;;;9.30;99.90;;;;;;5026907;28;20072;-80
2021/04/25 09:24:37;;;;;;;2.33;0.38;;;9.30;99.90;;;;;;5027509;28;20029;-80
2021/04/25 09:27:03;;;;;;;3.13;0.20;;;9.50;99.90;;;;;;5012677;28;20064;-80
2021/04/25 09:29:49;;;;;;;1.88;0.20;;;9.60;99.90;;;;;;5029070;28;20490;-80
2021/04/25 09:32:20;;;;;;;3.05;0.25;;;9.90;99.90;;;;;;5027135;28;20504;-80
2021/04/25 09:34:46;;;;;;;3.63;0.20;;;9.90;99.90;;;;;;5010642;28;20409;-80
2021/04/25 09:37:17;;;;;;;3.10;0.30;;;9.90;99.90;;;;;;5027101;28;20478;-80
2021/04/25 09:40:08;;;;;;;1.15;0.30;;;9.30;99.90;;;;;;5010833;28;20055;-80
2021/04/25 09:43:02;;;;;;;1.27;0.20;;;9.70;99.90;;;;;;5035483;28;20049;-80
2021/04/25 09:45:40;;;;;;;2.47;0.20;;;9.80;99.90;;;;;;5029864;28;20037;-79
2021/04/25 09:48:28;;;;;;;4.47;0.30;;;10.00;99.90;;;;;;5017381;28;20052;-80
2021/04/25 09:51:26;;;;;;;2.10;0.22;;;9.70;99.90;;;;;;5033402;28;20037;-80
2021/04/25 09:53:52;;;;;;;1.85;0.20;;;9.80;99.90;;;;;;5002264;28;20033;-79
2021/04/25 09:56:20;;;;;;;5.00;0.55;;;9.80;99.90;;;;;;5033333;28;20087;-80
2021/04/25 09:58:58;;;;;;;2.10;0.20;;;9.30;99.90;;;;;;5033540;28;20582;-79
2021/04/25 10:01:31;;;;;;;2.25;0.20;;;9.30;99.90;;;;;;5016890;28;20029;-79
2021/04/25 10:03:58;;;;;;;1.13;0.32;;;9.60;99.90;;;;;;5017313;28;20045;-80
2021/04/25 10:06:25;;;;;;;4.20;0.22;;;9.90;99.90;;;;;;5006609;28;20112;-80
2021/04/25 10:08:51;;;;;;;1.83;0.40;;;10.20;99.90;;;;;;5051116;28;20081;-79
2021/04/25 10:11:19;;;;;;;4.38;0.40;;;10.30;99.90;;;;;;5016826;28;20068;-80
2021/04/25 10:13:47;;;;;;;4.03;0.30;;;10.10;99.90;;;;;;5016897;28;20105;-79
2021/04/25 10:16:14;;;;;;;5.38;0.70;;;10.80;99.90;;;;;;5033634;28;20029;-80
2021/04/25 10:18:39;;;;;;;1.55;0.20;;;10.90;99.90;;;;;;5033299;28;20101;-80
2021/04/25 10:21:05;;;;;;;2.13;0.17;;;10.60;99.90;;;;;;5033631;28;20030;-79
2021/04/25 10:23:31;;;;;;;3.58;0.20;;;10.70;99.90;;;;;;5033344;28;20072;-79
2021/04/25 10:25:57;;;;;;;4.30;0.35;;;10.60;99.90;;;;;;5050901;28;20125;-80
2021/04/25 10:28:37;;;;;;;1.80;0.20;;;10.70;99.90;;;;;;5033488;28;20067;-80
2021/04/25 10:31:06;;;;;;;2.83;0.32;;;10.60;99.90;;;;;;5051164;28;20025;-80
2021/04/25 10:33:50;;;;;;;5.45;0.30;;;11.00;99.90;;;;;;5051280;28;20025;-79
2021/04/25 10:36:16;;;;;;;2.30;0.30;;;9.80;99.90;;;;;;5017625;28;20026;-79
2021/04/25 10:38:41;;;;;;;4.32;0.38;;;10.00;99.90;;;;;;5021519;28;20029;-79
2021/04/25 10:41:18;;;;;;;1.52;0.20;;;9.90;99.90;;;;;;5052424;28;20445;-80
2021/04/25 10:43:57;;;;;;;3.75;0.20;;;9.60;99.90;;;;;;5017212;28;20048;-79
2021/04/25 10:46:23;;;;;;;1.55;0.20;;;9.90;99.90;;;;;;5033167;28;20033;-79
2021/04/25 10:48:50;;;;;;;4.55;0.20;;;10.80;99.90;;;;;;5033292;28;20038;-79
2021/04/25 10:51:17;;;;;;;6.07;0.30;;;10.30;99.90;;;;;;5033345;28;20075;-80
2021/04/25 10:54:03;;;;;;;2.38;0.30;;;10.10;99.90;;;;;;5016981;28;20029;-79
2021/04/25 10:56:29;;;;;;;2.10;0.20;;;10.50;99.90;;;;;;5014918;28;20040;-79
2021/04/25 10:59:22;;;;;;;2.75;0.20;;;11.60;99.90;;;;;;5030093;28;20029;-80
2021/04/25 11:01:48;;;;;;;2.95;0.20;;;12.40;99.90;;;;;;5047452;28;20040;-79
2021/04/25 11:04:52;;;;;;;1.80;0.20;;;11.80;99.90;;;;;;5047715;28;20101;-79
2021/04/25 11:07:48;;;;;;;1.77;0.20;;;11.70;99.90;;;;;;5012930;28;20033;-79
2021/04/25 11:10:20;;;;;;;4.72;0.20;;;12.30;99.90;;;;;;5014014;28;20045;-79
2021/04/25 11:12:46;;;;;;;4.05;0.30;;;12.20;99.50;;;;;;5030160;28;20087;-80
2021/04/25 11:15:48;;;;;;;4.40;0.30;;;12.20;99.90;;;;;;5047018;28;20034;-79
2021/04/25 11:18:42;;;;;;;6.13;0.30;;;12.30;99.00;;;;;;5029792;28;20100;-80
2021/04/25 11:23:54;;;;;;;4.03;0.30;;;12.60;99.80;;;;;;5047136;28;20042;-79
2021/04/25 11:26:41;;;;;;;2.25;0.30;;;11.60;98.10;;;;;;5029207;28;20025;-80
2021/04/25 11:29:23;;;;;;;2.53;0.20;;;11.10;99.90;;;;;;5029642;28;20040;-80
2021/04/25 11:31:53;;;;;;;1.80;0.20;;;11.00;99.60;;;;;;5029169;28;20034;-80
2021/04/25 11:34:31;;;;;;;1.77;0.20;;;11.50;99.40;;;;;;5012983;28;20035;-79
2021/04/25 11:37:07;;;;;;;3.03;0.30;;;12.30;99.40;;;;;;5046283;28;20025;-80
2021/04/25 11:39:39;;;;;;;7.72;0.50;;;13.20;97.70;;;;;;5027233;28;20191;-79
2021/04/25 11:42:05;;;;;;;3.13;0.38;;;12.20;98.60;;;;;;5027968;28;20101;-81
2021/04/25 11:44:37;;;;;;;2.03;0.20;;;11.50;98.70;;;;;;5010814;28;20037;-79
2021/04/25 11:47:11;;;;;;;2.67;0.20;;;12.00;99.30;;;;;;5027250;28;20108;-78
2021/04/25 11:49:43;;;;;;;1.05;0.20;;;11.60;97.60;;;;;;5012064;28;20068;-80
2021/04/25 11:52:09;;;;;;;2.30;0.25;;;12.10;99.90;;;;;;5027930;28;20037;-79
2021/04/25 11:54:36;;;;;;;5.80;0.20;;;12.30;98.90;;;;;;5027663;28;20028;-79
2021/04/25 11:57:12;;;;;;;4.10;0.30;;;11.90;98.70;;;;;;5028428;28;20118;-78
2021/04/25 11:59:54;;;;;;;3.80;0.20;;;12.30;98.30;;;;;;5011886;28;20052;-79
2021/04/25 12:02:20;;;;;;;1.75;0.20;;;13.50;96.40;;;;;;5027964;28;20035;-79
2021/04/25 12:05:01;;;;;;;2.80;0.30;;;13.60;96.50;;;;;;5011297;28;20076;-79
2021/04/25 12:07:38;;;;;;;1.67;0.20;;;12.20;95.60;;;;;;5027517;23;20133;-78
2021/04/25 12:10:21;;;;;;;4.93;0.60;;;11.10;97.50;;;;;;5043649;28;20029;-79
2021/04/25 12:13:02;;;;;;;3.47;0.20;;;11.80;98.40;;;;;;5044168;28;20041;-78
2021/04/25 12:15:29;;;;;;;1.95;0.20;;;12.70;97.10;;;;;;5044479;28;20030;-78
2021/04/25 12:17:57;;;;;;;1.25;0.20;;;13.50;96.30;;;;;;5045643;28;20053;-78
2021/04/25 12:20:23;;;;;;;1.85;0.20;;;13.80;96.10;;;;;;5040701;28;20072;-78
2021/04/25 12:22:49;;;;;;;1.55;0.30;;;13.00;95.30;;;;;;5042829;28;20045;-78
2021/04/25 12:25:16;;;;;;;4.00;0.20;;;13.00;95.20;;;;;;5024885;28;20057;-78
2021/04/25 12:27:53;;;;;;;2.58;0.20;;;12.60;95.00;;;;;;5042219;28;20089;-78
2021/04/25 12:30:30;;;;;;;2.45;0.30;;;12.70;96.30;;;;;;5042175;28;20045;-78
2021/04/25 12:33:17;;;;;;;2.75;0.30;;;12.40;96.00;;;;;;5039122;28;20075;-78
2021/04/25 12:35:45;;;;;;;4.20;0.20;;;13.30;95.50;;;;;;5055784;28;20056;-79
2021/04/25 12:38:23;;;;;;;1.67;0.30;;;13.00;95.60;;;;;;5025868;28;20044;-78
2021/04/25 12:41:22;;;;;;;2.90;0.30;;;12.20;95.50;;;;;;5042342;28;20102;-78
2021/04/25 12:43:48;;;;;;;5.00;0.28;;;12.00;98.20;;;;;;5039141;28;20048;-79
2021/04/25 12:46:18;;;;;;;3.78;0.30;;;12.00;97.30;;;;;;5040650;28;20037;-78
2021/04/25 12:48:47;;;;;;;1.45;0.20;;;12.80;98.10;;;;;;5042206;28;20481;-78
2021/04/25 12:51:24;;;;;;;3.30;0.20;;;13.70;96.80;;;;;;5042077;28;20033;-79
2021/04/25 12:54:02;;;;;;;1.95;0.20;;;13.10;95.10;;;;;;5043309;28;20030;-79
2021/04/25 12:56:40;;;;;;;2.92;0.20;;;13.30;96.30;;;;;;5041109;28;20025;-78
2021/04/25 12:59:37;;;;;;;2.63;0.20;;;13.40;94.50;;;;;;5041716;28;20121;-78
2021/04/25 13:02:08;;;;;;;2.75;0.30;;;12.70;94.60;;;;;;5041502;28;20049;-79
2021/04/25 13:04:41;;;;;;;2.95;0.20;;;13.00;95.50;;;;;;5039254;28;20053;-78
2021/04/25 13:07:24;;;;;;;4.38;0.30;;;12.80;95.00;;;;;;5041688;28;20049;-78